Time;durP1;ratioP1;P1;durP2;ratioP2;P2;SDS_P1;SDS_P2;PMS_P1;PMS_P2;Temp;Humidity;BMP_temperature;BMP_pressure;BME280_temperature;BME280_humidity;BME280_pressure;Samples;Min_cycle;Max_cycle;Signal;HPM_P1;HPM_P2
2023/07/29 00:01:34;;;;;;;13.43;11.70;;;18.40;99.90;;;;;;5087248;28;20398;-72
2023/07/29 00:03:59;;;;;;;13.75;11.18;;;18.40;99.90;;;;;;5086939;28;20405;-72
2023/07/29 00:06:25;;;;;;;13.60;11.63;;;18.40;99.90;;;;;;5068690;28;21259;-72
2023/07/29 00:08:51;;;;;;;14.23;11.70;;;18.40;99.90;;;;;;5086653;28;20756;-72
2023/07/29 00:11:16;;;;;;;15.32;12.00;;;18.40;99.90;;;;;;5086348;28;20952;-72
2023/07/29 00:13:42;;;;;;;14.97;11.67;;;18.40;99.90;;;;;;5086697;28;20409;-72
2023/07/29 00:16:07;;;;;;;12.27;10.97;;;18.50;99.90;;;;;;5086533;28;20458;-72
2023/07/29 00:18:33;;;;;;;13.45;11.57;;;18.50;99.90;;;;;;5067485;28;20447;-72
2023/07/29 00:20:59;;;;;;;14.03;11.40;;;18.50;99.90;;;;;;5086916;28;20872;-72
2023/07/29 00:23:24;;;;;;;15.63;11.55;;;18.50;99.90;;;;;;5073365;28;20394;-72
2023/07/29 00:25:50;;;;;;;13.40;11.03;;;18.60;99.90;;;;;;5086516;28;20508;-72
2023/07/29 00:28:16;;;;;;;13.97;11.00;;;18.60;99.90;;;;;;5086661;28;20424;-72
2023/07/29 00:30:41;;;;;;;14.32;11.70;;;18.60;99.90;;;;;;5086781;28;20404;-72
2023/07/29 00:33:07;;;;;;;12.87;11.47;;;18.60;99.90;;;;;;5086349;28;20456;-71
2023/07/29 00:35:34;;;;;;;13.57;11.25;;;18.70;99.90;;;;;;5090691;28;20910;-71
2023/07/29 00:37:59;;;;;;;13.35;11.27;;;18.60;99.90;;;;;;5090458;28;20914;-72
2023/07/29 00:40:28;;;;;;;13.67;11.43;;;18.70;99.90;;;;;;5072128;28;20434;-72
2023/07/29 00:42:54;;;;;;;13.80;10.75;;;18.70;99.90;;;;;;5085268;28;20914;-72
2023/07/29 00:45:19;;;;;;;12.87;10.80;;;18.80;99.90;;;;;;5081651;28;20490;-72
2023/07/29 00:47:45;;;;;;;12.15;10.45;;;18.80;99.90;;;;;;5067181;28;20468;-72
2023/07/29 00:50:13;;;;;;;14.10;10.20;;;18.70;99.90;;;;;;5081706;28;20394;-72
2023/07/29 00:52:38;;;;;;;13.40;10.27;;;18.80;99.90;;;;;;5090361;28;20405;-72
2023/07/29 00:55:06;;;;;;;11.85;9.90;;;18.80;99.90;;;;;;5071707;28;20855;-72
2023/07/29 00:57:32;;;;;;;13.05;9.82;;;18.80;99.90;;;;;;5089656;28;20398;-72
2023/07/29 00:59:59;;;;;;;11.10;9.63;;;18.80;99.90;;;;;;5089761;28;20413;-72
2023/07/29 01:02:26;;;;;;;14.13;9.55;;;18.90;99.90;;;;;;5089662;28;21018;-72
2023/07/29 01:04:54;;;;;;;12.40;9.65;;;18.90;99.90;;;;;;5090053;28;20971;-72
2023/07/29 01:07:51;;;;;;;11.75;9.40;;;18.80;99.90;;;;;;5089282;28;20394;-72
2023/07/29 01:10:31;;;;;;;10.50;9.07;;;18.90;99.90;;;;;;5089875;28;20402;-72
2023/07/29 01:13:14;;;;;;;12.95;9.30;;;18.90;99.90;;;;;;5089910;28;20485;-72
2023/07/29 01:15:43;;;;;;;12.80;9.40;;;18.90;99.90;;;;;;5070564;28;20974;-72
2023/07/29 01:18:18;;;;;;;10.40;8.80;;;18.90;99.90;;;;;;5066198;28;20797;-71
2023/07/29 01:20:45;;;;;;;11.02;8.90;;;18.90;99.90;;;;;;5089569;28;20398;-72
2023/07/29 01:23:11;;;;;;;13.40;8.88;;;18.90;99.90;;;;;;5076651;28;20437;-72
2023/07/29 01:25:36;;;;;;;11.40;8.47;;;18.90;99.90;;;;;;5089661;28;20462;-72
2023/07/29 01:28:02;;;;;;;12.35;8.45;;;18.90;99.90;;;;;;5076705;28;20486;-72
2023/07/29 01:30:38;;;;;;;10.13;8.37;;;19.00;99.90;;;;;;5089705;28;20406;-72
2023/07/29 01:33:14;;;;;;;9.60;8.40;;;19.00;99.90;;;;;;5071734;28;20406;-72
2023/07/29 01:35:50;;;;;;;10.38;8.38;;;19.00;99.90;;;;;;5072215;28;20410;-72
2023/07/29 01:38:24;;;;;;;11.80;8.10;;;19.00;99.90;;;;;;5071376;28;20407;-72
2023/07/29 01:40:51;;;;;;;11.75;8.52;;;19.00;99.90;;;;;;5089958;28;20506;-71
2023/07/29 01:43:23;;;;;;;11.40;8.77;;;18.90;99.90;;;;;;5064026;28;20759;-72
2023/07/29 01:45:49;;;;;;;12.25;8.65;;;18.90;99.90;;;;;;5085069;28;20501;-72
2023/07/29 01:48:14;;;;;;;11.38;8.18;;;18.90;99.90;;;;;;5054724;28;21146;-72
2023/07/29 01:50:40;;;;;;;9.23;8.07;;;18.80;99.90;;;;;;5089589;28;20402;-71
2023/07/29 01:53:06;;;;;;;10.80;8.38;;;18.80;99.90;;;;;;5089606;28;20407;-72
2023/07/29 01:55:31;;;;;;;10.23;8.50;;;18.80;99.90;;;;;;5070055;28;20414;-72
2023/07/29 01:57:58;;;;;;;12.97;8.53;;;18.70;99.90;;;;;;5084370;28;20398;-72
2023/07/29 02:00:23;;;;;;;10.23;8.00;;;18.70;99.90;;;;;;5088783;28;20402;-72
2023/07/29 02:02:49;;;;;;;9.90;7.97;;;18.60;99.90;;;;;;5088733;28;20927;-72
2023/07/29 02:05:15;;;;;;;10.67;8.13;;;18.60;99.90;;;;;;5088293;28;20442;-72
2023/07/29 02:07:40;;;;;;;12.25;8.57;;;18.50;99.90;;;;;;5070210;28;20414;-72
2023/07/29 02:10:07;;;;;;;12.77;8.43;;;18.50;99.90;;;;;;5087886;28;20764;-72
2023/07/29 02:12:33;;;;;;;11.48;8.35;;;18.50;99.90;;;;;;5100187;28;20455;-72
2023/07/29 02:14:58;;;;;;;11.57;8.57;;;18.40;99.90;;;;;;5088665;28;20764;-72
2023/07/29 02:17:24;;;;;;;13.27;8.85;;;18.40;99.90;;;;;;5088557;28;20394;-72
2023/07/29 02:19:49;;;;;;;11.00;8.77;;;18.30;99.90;;;;;;5088391;28;20466;-72
2023/07/29 02:22:16;;;;;;;10.53;8.37;;;18.30;99.90;;;;;;5087283;28;20436;-72
2023/07/29 02:24:42;;;;;;;11.82;8.80;;;18.20;99.90;;;;;;5088307;28;20986;-72
2023/07/29 02:27:08;;;;;;;11.17;8.23;;;18.30;99.90;;;;;;5088333;28;20398;-72
2023/07/29 02:29:33;;;;;;;11.63;8.35;;;18.20;99.90;;;;;;5088381;28;20402;-72
2023/07/29 02:32:03;;;;;;;10.53;8.43;;;18.20;99.90;;;;;;5087749;28;20451;-72
2023/07/29 02:34:29;;;;;;;12.57;8.20;;;18.20;99.90;;;;;;5087986;28;20409;-72
2023/07/29 02:36:54;;;;;;;11.05;8.43;;;18.20;99.90;;;;;;5088110;28;20891;-72
2023/07/29 02:39:20;;;;;;;11.47;8.70;;;18.20;99.90;;;;;;5088116;28;20412;-72
2023/07/29 02:41:46;;;;;;;12.43;8.65;;;18.10;99.90;;;;;;5078831;28;20398;-71
2023/07/29 02:44:11;;;;;;;11.57;8.33;;;18.10;99.90;;;;;;5087131;28;20810;-72
2023/07/29 02:46:37;;;;;;;11.00;8.50;;;18.10;99.90;;;;;;5087465;28;20422;-71
2023/07/29 02:49:03;;;;;;;11.40;8.57;;;18.10;99.90;;;;;;5069351;28;20457;-72
2023/07/29 02:51:29;;;;;;;11.45;8.18;;;18.10;99.90;;;;;;5087938;28;20413;-72
2023/07/29 02:53:55;;;;;;;11.85;8.20;;;18.00;99.90;;;;;;5078776;28;20764;-72
2023/07/29 02:56:21;;;;;;;11.95;8.77;;;18.00;99.90;;;;;;5086829;28;20457;-72
2023/07/29 02:58:46;;;;;;;14.47;8.83;;;17.90;99.90;;;;;;5087824;28;20398;-72
2023/07/29 03:01:12;;;;;;;11.90;8.43;;;17.90;99.90;;;;;;5087818;28;20464;-72
2023/07/29 03:03:38;;;;;;;10.98;8.50;;;17.90;99.90;;;;;;5087638;28;20831;-72
2023/07/29 03:06:09;;;;;;;11.32;8.70;;;17.90;99.90;;;;;;5069046;28;20461;-72
2023/07/29 03:08:35;;;;;;;13.27;8.93;;;17.80;99.90;;;;;;5078557;28;20402;-72
2023/07/29 03:11:09;;;;;;;13.40;8.80;;;17.80;99.90;;;;;;5087436;28;20466;-71
2023/07/29 03:13:34;;;;;;;11.70;9.10;;;17.80;99.90;;;;;;5087345;28;20406;-72
2023/07/29 03:16:15;;;;;;;11.97;8.90;;;17.80;99.90;;;;;;5087445;28;20408;-71
2023/07/29 03:18:41;;;;;;;12.30;9.23;;;17.70;99.90;;;;;;5083168;28;20460;-72
2023/07/29 03:21:08;;;;;;;11.40;8.68;;;17.70;99.90;;;;;;5078668;28;20475;-72
2023/07/29 03:23:34;;;;;;;11.05;8.63;;;17.70;99.90;;;;;;5087355;28;20925;-72
2023/07/29 03:26:01;;;;;;;13.75;8.77;;;17.70;99.90;;;;;;5086744;28;20435;-72
2023/07/29 03:28:28;;;;;;;12.63;9.00;;;17.60;99.90;;;;;;5087187;28;20405;-72
2023/07/29 03:30:57;;;;;;;12.90;8.75;;;17.60;99.90;;;;;;5087147;28;20944;-72
2023/07/29 03:33:25;;;;;;;12.67;9.03;;;17.60;99.90;;;;;;5052847;28;20445;-72
2023/07/29 03:35:51;;;;;;;10.85;8.48;;;17.60;99.90;;;;;;5069049;28;20406;-72
2023/07/29 03:38:16;;;;;;;12.20;8.80;;;17.50;99.90;;;;;;5086452;28;20798;-72
2023/07/29 03:40:42;;;;;;;11.77;8.60;;;17.60;99.90;;;;;;5086609;28;20513;-72
2023/07/29 03:43:08;;;;;;;11.33;8.57;;;17.50;99.90;;;;;;5086954;28;20394;-72
2023/07/29 03:45:35;;;;;;;11.75;8.18;;;17.50;99.90;;;;;;5087046;28;20503;-72
2023/07/29 03:48:01;;;;;;;12.35;8.68;;;17.40;99.90;;;;;;5086547;28;20895;-72
2023/07/29 03:50:29;;;;;;;11.60;8.48;;;17.40;99.90;;;;;;5086858;28;20398;-72
2023/07/29 03:52:55;;;;;;;14.07;9.15;;;17.40;99.90;;;;;;5087360;28;20406;-72
2023/07/29 03:55:20;;;;;;;12.02;8.10;;;17.40;99.90;;;;;;5086728;28;20453;-72
2023/07/29 03:57:46;;;;;;;11.97;8.37;;;17.40;99.90;;;;;;5086763;28;20421;-72
2023/07/29 04:00:12;;;;;;;12.02;8.35;;;17.40;99.90;;;;;;5086739;28;20402;-72
2023/07/29 04:02:38;;;;;;;10.75;7.90;;;17.30;99.90;;;;;;5052273;28;20410;-72
2023/07/29 04:05:05;;;;;;;12.15;8.35;;;17.40;99.90;;;;;;5086328;28;20422;-72
2023/07/29 04:07:31;;;;;;;10.82;8.23;;;17.30;99.90;;;;;;5088158;28;20405;-72
2023/07/29 04:09:57;;;;;;;11.98;8.50;;;17.30;99.90;;;;;;5091051;28;20390;-72
2023/07/29 04:12:23;;;;;;;14.43;8.77;;;17.30;99.90;;;;;;5090331;28;20402;-72
2023/07/29 04:14:49;;;;;;;11.48;8.00;;;17.30;99.90;;;;;;5073163;28;20397;-72
2023/07/29 04:17:14;;;;;;;13.20;8.32;;;17.30;99.90;;;;;;5091703;28;20401;-72
2023/07/29 04:19:40;;;;;;;12.00;7.80;;;17.30;99.90;;;;;;5073539;28;20455;-72
2023/07/29 04:22:05;;;;;;;10.73;7.53;;;17.30;99.90;;;;;;5091167;28;20406;-72
2023/07/29 04:24:31;;;;;;;11.55;7.88;;;17.30;99.90;;;;;;5091596;28;20406;-72
2023/07/29 04:26:57;;;;;;;11.10;7.03;;;17.30;99.90;;;;;;5091463;28;20798;-72
2023/07/29 04:29:22;;;;;;;11.77;7.60;;;17.40;99.90;;;;;;5091595;28;20471;-72
2023/07/29 04:31:49;;;;;;;12.00;7.57;;;17.30;99.90;;;;;;5091536;28;20898;-71
2023/07/29 04:34:15;;;;;;;11.32;7.47;;;17.40;99.90;;;;;;5090956;28;20398;-72
2023/07/29 04:36:40;;;;;;;12.00;7.10;;;17.40;99.90;;;;;;5073515;28;20398;-72
2023/07/29 04:39:06;;;;;;;11.37;7.17;;;17.50;99.90;;;;;;5091389;28;21239;-72
2023/07/29 04:41:31;;;;;;;10.30;6.70;;;17.50;99.90;;;;;;5090967;28;20410;-72
2023/07/29 04:43:57;;;;;;;9.30;7.10;;;17.50;99.90;;;;;;5091057;28;20805;-72
2023/07/29 04:46:23;;;;;;;11.83;7.57;;;17.50;99.90;;;;;;5091501;28;20464;-72
2023/07/29 04:48:48;;;;;;;9.88;6.97;;;17.60;99.90;;;;;;5082183;28;20445;-72
2023/07/29 04:51:14;;;;;;;10.37;6.80;;;17.50;99.90;;;;;;5090413;28;20472;-72
2023/07/29 04:53:39;;;;;;;8.70;6.80;;;17.60;99.90;;;;;;5090489;28;20398;-72
2023/07/29 04:56:05;;;;;;;9.15;6.28;;;17.60;99.90;;;;;;5090789;28;20806;-72
2023/07/29 04:58:34;;;;;;;9.60;6.07;;;17.60;99.90;;;;;;5083516;28;20474;-72
2023/07/29 05:01:00;;;;;;;9.02;5.78;;;17.70;99.90;;;;;;5072551;28;20851;-72
2023/07/29 05:03:26;;;;;;;8.82;5.55;;;17.80;99.90;;;;;;5090874;28;20431;-72
2023/07/29 05:05:53;;;;;;;10.37;5.47;;;17.90;99.90;;;;;;5090929;28;20795;-72
2023/07/29 05:08:19;;;;;;;8.25;5.53;;;17.90;99.90;;;;;;5090638;28;20903;-72
2023/07/29 05:10:48;;;;;;;7.35;4.93;;;18.00;99.90;;;;;;5090252;28;20452;-72
2023/07/29 05:13:13;;;;;;;9.75;5.30;;;18.10;99.90;;;;;;5090576;28;20402;-71
2023/07/29 05:15:39;;;;;;;8.07;4.77;;;18.20;99.90;;;;;;5072574;28;20419;-72
2023/07/29 05:18:04;;;;;;;9.87;4.40;;;18.20;99.90;;;;;;5090384;28;20394;-72
2023/07/29 05:20:30;;;;;;;7.90;4.78;;;18.20;99.90;;;;;;5089624;28;20763;-72
2023/07/29 05:22:55;;;;;;;8.35;4.05;;;18.30;99.90;;;;;;5090487;28;20412;-72
2023/07/29 05:25:21;;;;;;;6.73;3.67;;;18.30;99.90;;;;;;5090138;28;21047;-72
2023/07/29 05:27:47;;;;;;;6.97;3.78;;;18.30;99.90;;;;;;5090479;28;20401;-72
2023/07/29 05:30:12;;;;;;;6.47;3.77;;;18.30;99.90;;;;;;5090113;28;20398;-72
2023/07/29 05:32:38;;;;;;;6.30;3.50;;;18.30;99.90;;;;;;5090499;28;20501;-72
2023/07/29 05:35:04;;;;;;;6.10;3.30;;;18.30;99.90;;;;;;5089999;28;20406;-72
2023/07/29 05:37:29;;;;;;;5.70;3.07;;;18.30;99.90;;;;;;5090201;28;20402;-72
2023/07/29 05:39:55;;;;;;;6.88;3.00;;;18.30;99.90;;;;;;5071700;28;20402;-72
2023/07/29 05:42:21;;;;;;;6.40;3.50;;;18.30;99.90;;;;;;5089944;28;20481;-72
2023/07/29 05:44:46;;;;;;;7.57;3.45;;;18.30;99.90;;;;;;5089641;28;20444;-72
2023/07/29 05:47:12;;;;;;;7.27;3.10;;;18.30;99.90;;;;;;5089907;28;20406;-72
2023/07/29 05:49:37;;;;;;;8.80;3.50;;;18.30;99.90;;;;;;5090259;28;20402;-72
2023/07/29 05:52:03;;;;;;;8.27;3.20;;;18.30;99.90;;;;;;5089308;28;20402;-70
2023/07/29 05:54:29;;;;;;;5.93;3.10;;;18.30;99.90;;;;;;5090078;28;20405;-70
2023/07/29 05:56:54;;;;;;;5.30;3.00;;;18.30;99.90;;;;;;5089532;28;20398;-71
2023/07/29 05:59:20;;;;;;;6.68;3.05;;;18.40;99.90;;;;;;5090152;28;20776;-71
2023/07/29 06:01:45;;;;;;;4.43;2.50;;;18.40;99.90;;;;;;5089483;28;20398;-71
2023/07/29 06:04:11;;;;;;;6.63;2.67;;;18.40;99.90;;;;;;5089377;28;20756;-71
2023/07/29 06:06:37;;;;;;;5.13;2.50;;;18.40;99.90;;;;;;5088684;28;20433;-72
2023/07/29 06:09:02;;;;;;;6.40;3.00;;;18.40;99.90;;;;;;5088905;28;20406;-72
2023/07/29 06:11:28;;;;;;;5.45;2.78;;;18.40;99.90;;;;;;5089036;28;20791;-71
2023/07/29 06:13:53;;;;;;;4.53;2.57;;;18.40;99.90;;;;;;5089282;28;20398;-71
2023/07/29 06:16:19;;;;;;;7.13;3.07;;;18.50;99.90;;;;;;5071338;28;20455;-71
2023/07/29 06:18:45;;;;;;;5.30;2.83;;;18.50;99.90;;;;;;5089280;28;20465;-72
2023/07/29 06:21:16;;;;;;;8.27;3.00;;;18.50;99.90;;;;;;5088982;28;20820;-72
2023/07/29 06:23:45;;;;;;;5.88;2.47;;;18.50;99.90;;;;;;5088982;28;20398;-72
2023/07/29 06:26:11;;;;;;;6.03;2.45;;;18.50;99.90;;;;;;5070278;28;20494;-72
2023/07/29 06:28:36;;;;;;;4.70;2.43;;;18.50;99.90;;;;;;5070790;28;20795;-72
2023/07/29 06:31:02;;;;;;;6.00;2.42;;;18.60;99.90;;;;;;5087782;28;20478;-72
2023/07/29 06:33:27;;;;;;;6.77;2.50;;;18.60;99.90;;;;;;5088889;28;20394;-72
2023/07/29 06:35:53;;;;;;;4.83;2.30;;;18.60;99.90;;;;;;5088671;28;20390;-72
2023/07/29 06:38:21;;;;;;;4.57;2.40;;;18.60;99.90;;;;;;5088672;28;20471;-72
2023/07/29 06:40:48;;;;;;;5.93;2.33;;;18.70;99.90;;;;;;5070531;28;21180;-72
2023/07/29 06:43:13;;;;;;;6.60;2.38;;;18.70;70.70;;;;;;5088650;28;20493;-72
2023/07/29 06:45:39;;;;;;;5.77;2.40;;;18.70;70.20;;;;;;5088812;28;20532;-72
2023/07/29 06:48:04;;;;;;;5.93;2.40;;;18.80;69.70;;;;;;5069824;28;20410;-72
2023/07/29 06:50:30;;;;;;;5.35;2.30;;;18.80;68.30;;;;;;5088397;28;20465;-72
2023/07/29 06:52:56;;;;;;;5.20;2.30;;;18.80;67.30;;;;;;5088320;28;20410;-72
2023/07/29 06:55:21;;;;;;;4.83;2.27;;;19.00;67.40;;;;;;5088218;28;20406;-72
2023/07/29 06:57:47;;;;;;;5.65;2.22;;;19.10;67.80;;;;;;5088435;28;20406;-72
2023/07/29 07:00:13;;;;;;;6.67;2.10;;;19.30;67.30;;;;;;5087992;28;20973;-72
2023/07/29 07:02:38;;;;;;;5.70;2.30;;;19.40;63.80;;;;;;5084288;28;20476;-72
2023/07/29 07:05:04;;;;;;;5.27;2.20;;;19.50;58.70;;;;;;5088168;28;20422;-72
2023/07/29 07:07:30;;;;;;;6.50;2.38;;;19.60;56.50;;;;;;5088549;28;20433;-71
2023/07/29 07:09:56;;;;;;;6.57;2.20;;;19.60;53.10;;;;;;5088014;28;20919;-72
2023/07/29 07:12:22;;;;;;;5.77;2.50;;;19.60;48.40;;;;;;5088217;28;20493;-72
2023/07/29 07:14:48;;;;;;;4.82;2.40;;;19.60;47.80;;;;;;5070305;28;20429;-72
2023/07/29 07:17:13;;;;;;;5.68;2.58;;;19.60;45.60;;;;;;5088195;28;21050;-72
2023/07/29 07:19:39;;;;;;;5.80;2.53;;;19.60;45.50;;;;;;5088123;28;20397;-72
2023/07/29 07:22:05;;;;;;;5.67;2.60;;;19.60;44.60;;;;;;5070179;28;20437;-72
2023/07/29 07:24:31;;;;;;;6.07;2.47;;;19.60;45.70;;;;;;5088313;28;20879;-72
2023/07/29 07:26:56;;;;;;;6.35;3.08;;;19.70;44.20;;;;;;5079962;28;20897;-72
2023/07/29 07:29:22;;;;;;;6.60;2.72;;;19.70;43.30;;;;;;5088466;28;20455;-72
2023/07/29 07:31:52;;;;;;;7.15;2.63;;;19.80;43.50;;;;;;5088012;28;20406;-72
2023/07/29 07:34:19;;;;;;;7.10;2.50;;;19.80;41.90;;;;;;5086277;28;20410;-71
2023/07/29 07:36:45;;;;;;;6.25;2.80;;;19.90;42.60;;;;;;5086383;28;20402;-72
2023/07/29 07:39:10;;;;;;;7.23;2.83;;;20.00;39.60;;;;;;5068462;28;20420;-72
2023/07/29 07:41:36;;;;;;;6.63;2.23;;;20.00;35.60;;;;;;5080057;28;20413;-72
2023/07/29 07:44:02;;;;;;;11.65;3.38;;;20.00;35.90;;;;;;5079415;28;20401;-72
2023/07/29 07:46:29;;;;;;;6.67;2.60;;;20.00;36.20;;;;;;5082711;28;20424;-73
2023/07/29 07:48:54;;;;;;;5.20;2.70;;;20.10;32.40;;;;;;5081322;28;20429;-71
2023/07/29 07:51:20;;;;;;;5.57;2.55;;;20.10;29.60;;;;;;5086318;28;20436;-70
2023/07/29 07:53:46;;;;;;;5.80;2.88;;;20.10;31.00;;;;;;5081350;28;20410;-72
2023/07/29 07:56:11;;;;;;;5.17;2.43;;;20.20;30.30;;;;;;5082467;28;21135;-71
2023/07/29 07:58:37;;;;;;;6.82;2.70;;;20.20;29.10;;;;;;5085946;28;20488;-71
2023/07/29 08:01:08;;;;;;;8.67;3.00;;;20.20;27.30;;;;;;5083403;28;20401;-71
2023/07/29 08:03:34;;;;;;;7.75;3.05;;;20.10;26.10;;;;;;5069166;28;20459;-72
2023/07/29 08:06:00;;;;;;;5.40;2.70;;;20.10;23.50;;;;;;5087393;28;20815;-72
2023/07/29 08:08:26;;;;;;;5.37;2.40;;;20.00;23.40;;;;;;5087954;28;20402;-71
2023/07/29 08:10:54;;;;;;;6.32;2.67;;;20.00;23.60;;;;;;5082623;28;20424;-71
2023/07/29 08:13:23;;;;;;;5.63;2.50;;;20.00;23.90;;;;;;5048926;28;20410;-72
2023/07/29 08:15:51;;;;;;;6.65;2.67;;;20.00;24.70;;;;;;5087807;28;20429;-71
2023/07/29 08:18:18;;;;;;;6.17;2.93;;;20.10;26.40;;;;;;5079958;28;20463;-71
2023/07/29 08:20:57;;;;;;;6.70;2.70;;;20.20;26.10;;;;;;5087832;28;20406;-71
2023/07/29 08:23:26;;;;;;;5.13;2.60;;;20.20;22.00;;;;;;5067753;28;20441;-71
2023/07/29 08:26:00;;;;;;;7.17;2.63;;;20.30;21.50;;;;;;5087713;28;20464;-71
2023/07/29 08:28:30;;;;;;;6.32;2.70;;;20.30;21.70;;;;;;5087080;28;20406;-71
2023/07/29 08:30:56;;;;;;;5.88;2.70;;;20.40;21.90;;;;;;5087074;28;20416;-72
2023/07/29 08:33:22;;;;;;;6.38;2.40;;;20.50;21.60;;;;;;5087028;28;21135;-72
2023/07/29 08:35:47;;;;;;;6.97;2.67;;;20.60;21.60;;;;;;5079520;28;20487;-71
2023/07/29 08:38:13;;;;;;;4.83;2.30;;;20.80;20.60;;;;;;5086822;28;20406;-71
2023/07/29 08:40:45;;;;;;;5.07;2.22;;;20.80;16.50;;;;;;5087038;28;20449;-71
2023/07/29 08:43:13;;;;;;;7.05;2.30;;;21.00;10.00;;;;;;5086446;28;20398;-72
2023/07/29 08:45:40;;;;;;;6.18;2.30;;;21.10;8.10;;;;;;5085388;28;20776;-71
2023/07/29 08:48:09;;;;;;;6.20;1.98;;;21.20;8.50;;;;;;5085421;28;20417;-71
2023/07/29 08:50:36;;;;;;;5.78;2.38;;;21.30;7.00;;;;;;5068646;28;20425;-71
2023/07/29 08:53:05;;;;;;;4.95;2.30;;;21.40;2.60;;;;;;5067492;28;20836;-72
2023/07/29 08:55:32;;;;;;;6.18;2.13;;;21.50;1.00;;;;;;5089269;28;20459;-72
2023/07/29 08:57:59;;;;;;;8.02;2.17;;;21.60;1.00;;;;;;5089653;28;20459;-71
2023/07/29 09:00:26;;;;;;;5.60;2.28;;;21.60;1.00;;;;;;5089118;28;20507;-71
2023/07/29 09:02:52;;;;;;;5.75;1.83;;;21.60;1.00;;;;;;5089800;28;20756;-71
2023/07/29 09:05:18;;;;;;;6.90;2.13;;;21.60;1.00;;;;;;5088870;28;20437;-72
2023/07/29 09:07:45;;;;;;;5.05;2.13;;;21.50;1.00;;;;;;5089883;28;20425;-71
2023/07/29 09:10:14;;;;;;;5.22;2.00;;;21.50;1.00;;;;;;5089121;28;20410;-71
2023/07/29 09:12:40;;;;;;;5.95;2.42;;;21.40;1.00;;;;;;5089396;28;20406;-71
2023/07/29 09:15:06;;;;;;;4.65;2.00;;;21.40;1.00;;;;;;5089109;28;20930;-71
2023/07/29 09:17:37;;;;;;;6.40;2.20;;;21.60;1.00;;;;;;5090347;28;20394;-71
2023/07/29 09:20:04;;;;;;;4.10;2.00;;;21.70;1.00;;;;;;5088353;28;20406;-71
2023/07/29 09:22:31;;;;;;;5.32;1.98;;;21.80;1.00;;;;;;5089598;28;20414;-71
2023/07/29 09:24:58;;;;;;;6.10;1.73;;;22.00;1.00;;;;;;5088470;28;20429;-71
2023/07/29 09:27:25;;;;;;;5.43;1.67;;;22.30;1.00;;;;;;5089394;28;20959;-72
2023/07/29 09:29:50;;;;;;;4.50;1.65;;;22.40;1.00;;;;;;5103425;28;20464;-72
2023/07/29 09:32:21;;;;;;;4.10;1.50;;;22.50;1.00;;;;;;5088744;28;20402;-72
2023/07/29 09:34:47;;;;;;;5.23;1.50;;;22.60;1.00;;;;;;5089323;28;20920;-72
2023/07/29 09:37:22;;;;;;;3.67;1.73;;;22.80;1.00;;;;;;5089646;28;20869;-72
2023/07/29 09:39:49;;;;;;;4.53;1.40;;;23.10;1.00;;;;;;5087559;28;20413;-72
2023/07/29 09:42:23;;;;;;;5.32;1.50;;;23.00;1.00;;;;;;5089618;28;20410;-72
2023/07/29 09:44:50;;;;;;;5.80;1.70;;;22.90;1.00;;;;;;5070991;28;20984;-72
2023/07/29 09:47:24;;;;;;;5.80;1.65;;;22.80;1.00;;;;;;5089398;28;20412;-69
2023/07/29 09:49:51;;;;;;;5.25;1.45;;;22.70;1.00;;;;;;5071971;28;20800;-70
2023/07/29 09:52:18;;;;;;;5.47;1.50;;;22.60;1.00;;;;;;5089131;28;20500;-70
2023/07/29 09:54:44;;;;;;;4.22;1.65;;;22.70;1.00;;;;;;5089679;28;20406;-71
2023/07/29 09:57:12;;;;;;;4.68;1.50;;;22.80;1.00;;;;;;5089398;28;21136;-72
2023/07/29 09:59:37;;;;;;;4.55;1.40;;;22.70;1.00;;;;;;5087621;28;20787;-71
2023/07/29 10:02:03;;;;;;;6.67;1.80;;;22.60;1.00;;;;;;5088810;28;20408;-71
2023/07/29 10:04:30;;;;;;;4.97;1.40;;;22.50;1.00;;;;;;5070504;28;20927;-71
2023/07/29 10:06:57;;;;;;;4.82;1.40;;;22.70;1.00;;;;;;5088280;28;20472;-71
2023/07/29 10:09:24;;;;;;;5.07;1.60;;;22.90;1.00;;;;;;5089844;28;20796;-71
2023/07/29 10:11:50;;;;;;;4.68;1.42;;;23.40;1.00;;;;;;5089871;28;20437;-72
2023/07/29 10:14:17;;;;;;;3.42;1.30;;;24.00;99.90;;;;;;5089004;28;20414;-71
2023/07/29 10:16:46;;;;;;;3.47;0.88;;;24.50;99.90;;;;;;5088262;28;20417;-71
2023/07/29 10:19:14;;;;;;;3.43;0.90;;;24.80;99.90;;;;;;5089586;28;20398;-71
2023/07/29 10:21:44;;;;;;;10.38;1.20;;;25.00;99.90;;;;;;5089200;28;20482;-70
2023/07/29 10:24:16;;;;;;;3.47;1.00;;;25.30;99.90;;;;;;5089075;28;20417;-71
2023/07/29 10:26:45;;;;;;;2.60;0.52;;;25.60;16.60;;;;;;5088937;28;20475;-71
2023/07/29 10:29:13;;;;;;;3.58;0.68;;;25.50;99.90;;;;;;5088437;28;20413;-71
2023/07/29 10:31:42;;;;;;;2.65;0.70;;;25.40;99.90;;;;;;5089319;28;20445;-71
2023/07/29 10:34:09;;;;;;;3.53;0.90;;;25.30;99.90;;;;;;5070963;28;20406;-72
2023/07/29 10:36:35;;;;;;;3.97;0.70;;;25.20;1.00;;;;;;5088830;28;20402;-72
2023/07/29 10:39:01;;;;;;;2.35;0.60;;;25.50;1.00;;;;;;5088529;28;20397;-72
2023/07/29 10:41:56;;;;;;;2.60;0.60;;;25.80;90.20;;;;;;5088453;28;20394;-72
2023/07/29 10:44:41;;;;;;;3.80;0.70;;;25.90;99.90;;;;;;5088429;28;20410;-72
2023/07/29 10:47:14;;;;;;;3.92;0.70;;;25.70;99.90;;;;;;5047504;28;20418;-72
2023/07/29 10:49:47;;;;;;;3.90;0.93;;;25.40;99.90;;;;;;5087868;28;20398;-72
2023/07/29 10:52:27;;;;;;;2.63;0.73;;;25.30;99.90;;;;;;5083545;28;20417;-72
2023/07/29 10:54:53;;;;;;;4.43;0.80;;;25.20;99.40;;;;;;5088479;28;20404;-72
2023/07/29 10:57:36;;;;;;;3.37;0.70;;;25.10;99.90;;;;;;5080920;28;20402;-72
2023/07/29 11:00:04;;;;;;;3.22;0.70;;;25.10;99.90;;;;;;5080255;28;20764;-72
2023/07/29 11:02:36;;;;;;;4.55;0.63;;;25.10;99.90;;;;;;5083096;28;20413;-72
2023/07/29 11:05:18;;;;;;;2.75;1.00;;;25.10;99.90;;;;;;5064893;28;20440;-72
2023/07/29 11:07:45;;;;;;;2.30;0.68;;;25.10;99.90;;;;;;5085829;28;20390;-71
2023/07/29 11:10:12;;;;;;;3.22;0.60;;;25.00;99.90;;;;;;5078829;28;20402;-71
2023/07/29 11:12:42;;;;;;;2.87;0.60;;;24.90;1.00;;;;;;5085635;28;20441;-71
2023/07/29 11:15:10;;;;;;;3.30;0.50;;;25.00;1.00;;;;;;5085383;28;20489;-72
2023/07/29 11:17:43;;;;;;;1.83;0.60;;;25.00;93.80;;;;;;5082955;28;20763;-71
2023/07/29 11:20:10;;;;;;;1.88;0.47;;;25.00;46.70;;;;;;5085458;28;20413;-72
2023/07/29 11:22:36;;;;;;;3.03;0.70;;;25.00;1.00;;;;;;5075937;28;20485;-72
2023/07/29 11:25:02;;;;;;;2.97;0.57;;;24.70;78.50;;;;;;5081156;28;20914;-71
2023/07/29 11:27:28;;;;;;;3.30;0.57;;;24.60;96.80;;;;;;5085874;28;20910;-71
2023/07/29 11:29:58;;;;;;;2.03;0.50;;;24.60;99.90;;;;;;5081597;28;20493;-72
2023/07/29 11:32:25;;;;;;;2.60;0.55;;;24.60;99.90;;;;;;5085922;28;20592;-71
2023/07/29 11:34:50;;;;;;;1.90;0.73;;;24.70;99.90;;;;;;5066136;28;20410;-71
2023/07/29 11:37:17;;;;;;;3.30;0.60;;;24.70;99.90;;;;;;5068963;28;20459;-71
2023/07/29 11:39:44;;;;;;;3.42;0.70;;;24.70;99.90;;;;;;5086686;28;20451;-71
2023/07/29 11:42:13;;;;;;;3.05;0.80;;;24.40;99.90;;;;;;5086030;28;20409;-71
2023/07/29 11:44:39;;;;;;;4.43;1.00;;;24.20;99.90;;;;;;5086347;28;20778;-71
2023/07/29 11:47:08;;;;;;;3.20;0.80;;;24.00;1.00;;;;;;5085542;28;20434;-71
2023/07/29 11:49:35;;;;;;;3.15;0.57;;;23.80;99.90;;;;;;5086565;28;20402;-72
2023/07/29 11:52:02;;;;;;;3.00;0.60;;;23.50;99.90;;;;;;5086307;28;20413;-71
2023/07/29 11:54:28;;;;;;;4.15;0.80;;;23.20;59.70;;;;;;5087865;28;20405;-71
2023/07/29 11:56:55;;;;;;;4.63;0.60;;;23.20;16.60;;;;;;5086305;28;20843;-70
2023/07/29 11:59:21;;;;;;;3.53;0.70;;;23.30;1.00;;;;;;5078647;28;20418;-71
2023/07/29 12:01:47;;;;;;;2.83;0.70;;;23.70;1.00;;;;;;5086123;28;20939;-71
2023/07/29 12:04:14;;;;;;;3.08;0.50;;;23.80;99.90;;;;;;5080391;28;20398;-71
2023/07/29 12:06:40;;;;;;;2.78;0.70;;;23.70;99.90;;;;;;5087369;28;20433;-71
2023/07/29 12:09:07;;;;;;;2.80;0.60;;;23.60;91.10;;;;;;5056650;28;20405;-71
2023/07/29 12:11:33;;;;;;;2.45;0.70;;;23.60;1.00;;;;;;5086786;28;20405;-71
2023/07/29 12:14:00;;;;;;;3.03;0.73;;;24.10;1.00;;;;;;5084789;28;20811;-72
2023/07/29 12:16:25;;;;;;;3.50;0.50;;;24.70;99.90;;;;;;5087077;28;20459;-72
2023/07/29 12:18:51;;;;;;;3.65;0.80;;;25.20;99.90;;;;;;5086138;28;20398;-72
2023/07/29 12:21:18;;;;;;;3.15;0.77;;;25.60;1.00;;;;;;5086339;28;20424;-72
2023/07/29 12:23:44;;;;;;;3.65;0.70;;;25.80;99.90;;;;;;5086219;28;20413;-72
2023/07/29 12:26:10;;;;;;;2.93;0.77;;;25.80;1.00;;;;;;5086066;28;20796;-72
2023/07/29 12:28:35;;;;;;;2.87;0.73;;;26.00;29.50;;;;;;5086322;28;20433;-72
2023/07/29 12:31:01;;;;;;;4.33;0.80;;;26.20;99.90;;;;;;5071746;28;20406;-72
2023/07/29 12:33:30;;;;;;;4.38;0.80;;;26.20;1.00;;;;;;5089793;28;20397;-72
2023/07/29 12:35:56;;;;;;;3.60;1.08;;;25.80;99.90;;;;;;5090994;28;20489;-72
2023/07/29 12:38:22;;;;;;;7.78;1.80;;;25.20;99.90;;;;;;5089745;28;20489;-73
2023/07/29 12:40:47;;;;;;;6.40;1.90;;;24.50;99.90;;;;;;5090543;28;20408;-72
2023/07/29 12:43:13;;;;;;;5.83;1.63;;;23.50;99.90;;;;;;5089664;28;20410;-72